sensor_id;sensor_type;location;lat;lon;timestamp;P1;durP1;ratioP1;P2;durP2;ratioP2
19183;SDS011;9724;51.194;6.856;2023-03-01T00:02:10;9.97;;;6.40;;
19183;SDS011;9724;51.194;6.856;2023-03-01T00:05:01;11.63;;;6.47;;
19183;SDS011;9724;51.194;6.856;2023-03-01T00:07:52;9.30;;;6.27;;
19183;SDS011;9724;51.194;6.856;2023-03-01T00:10:42;10.60;;;6.57;;
19183;SDS011;9724;51.194;6.856;2023-03-01T00:13:34;12.50;;;6.13;;
19183;SDS011;9724;51.194;6.856;2023-03-01T00:16:27;12.53;;;6.23;;
19183;SDS011;9724;51.194;6.856;2023-03-01T00:19:19;10.77;;;6.13;;
19183;SDS011;9724;51.194;6.856;2023-03-01T00:22:12;10.67;;;5.87;;
19183;SDS011;9724;51.194;6.856;2023-03-01T00:25:03;13.40;;;6.77;;
19183;SDS011;9724;51.194;6.856;2023-03-01T00:27:55;9.83;;;6.33;;
19183;SDS011;9724;51.194;6.856;2023-03-01T00:30:46;12.27;;;6.63;;
19183;SDS011;9724;51.194;6.856;2023-03-01T00:33:37;9.43;;;5.97;;
19183;SDS011;9724;51.194;6.856;2023-03-01T00:36:29;13.40;;;6.40;;
19183;SDS011;9724;51.194;6.856;2023-03-01T00:39:22;9.93;;;5.60;;
19183;SDS011;9724;51.194;6.856;2023-03-01T00:42:12;11.33;;;6.00;;
19183;SDS011;9724;51.194;6.856;2023-03-01T00:45:04;9.07;;;5.97;;
19183;SDS011;9724;51.194;6.856;2023-03-01T00:47:58;14.37;;;6.47;;
19183;SDS011;9724;51.194;6.856;2023-03-01T00:50:49;10.40;;;6.67;;
19183;SDS011;9724;51.194;6.856;2023-03-01T00:53:41;12.57;;;6.03;;
19183;SDS011;9724;51.194;6.856;2023-03-01T00:56:33;8.67;;;6.10;;
19183;SDS011;9724;51.194;6.856;2023-03-01T00:59:24;12.10;;;6.40;;
19183;SDS011;9724;51.194;6.856;2023-03-01T01:02:15;12.83;;;6.23;;
19183;SDS011;9724;51.194;6.856;2023-03-01T01:05:06;10.30;;;6.10;;
19183;SDS011;9724;51.194;6.856;2023-03-01T01:07:58;8.43;;;5.83;;
19183;SDS011;9724;51.194;6.856;2023-03-01T01:10:49;9.50;;;5.83;;
19183;SDS011;9724;51.194;6.856;2023-03-01T01:13:40;10.67;;;6.23;;
19183;SDS011;9724;51.194;6.856;2023-03-01T01:16:31;10.20;;;6.27;;
19183;SDS011;9724;51.194;6.856;2023-03-01T01:19:22;9.93;;;6.00;;
19183;SDS011;9724;51.194;6.856;2023-03-01T01:22:14;16.00;;;6.63;;
19183;SDS011;9724;51.194;6.856;2023-03-01T01:25:06;16.80;;;6.60;;
19183;SDS011;9724;51.194;6.856;2023-03-01T01:27:57;11.67;;;6.30;;
19183;SDS011;9724;51.194;6.856;2023-03-01T01:30:48;12.53;;;6.57;;
19183;SDS011;9724;51.194;6.856;2023-03-01T01:33:39;14.63;;;6.33;;
19183;SDS011;9724;51.194;6.856;2023-03-01T01:36:30;11.67;;;5.87;;
19183;SDS011;9724;51.194;6.856;2023-03-01T01:39:22;10.47;;;6.83;;
19183;SDS011;9724;51.194;6.856;2023-03-01T01:42:15;12.20;;;6.33;;
19183;SDS011;9724;51.194;6.856;2023-03-01T01:48:28;11.87;;;6.83;;
19183;SDS011;9724;51.194;6.856;2023-03-01T01:51:31;16.13;;;6.53;;
19183;SDS011;9724;51.194;6.856;2023-03-01T01:54:29;16.27;;;6.80;;
19183;SDS011;9724;51.194;6.856;2023-03-01T01:57:24;10.60;;;6.50;;
19183;SDS011;9724;51.194;6.856;2023-03-01T02:00:20;13.83;;;6.80;;
19183;SDS011;9724;51.194;6.856;2023-03-01T02:03:13;13.40;;;7.70;;
19183;SDS011;9724;51.194;6.856;2023-03-01T02:06:11;11.67;;;6.27;;
19183;SDS011;9724;51.194;6.856;2023-03-01T02:09:06;10.73;;;6.10;;
19183;SDS011;9724;51.194;6.856;2023-03-01T02:12:00;16.23;;;7.17;;
19183;SDS011;9724;51.194;6.856;2023-03-01T02:14:53;16.73;;;7.13;;
19183;SDS011;9724;51.194;6.856;2023-03-01T02:17:44;11.43;;;6.97;;
19183;SDS011;9724;51.194;6.856;2023-03-01T02:20:39;10.63;;;6.60;;
19183;SDS011;9724;51.194;6.856;2023-03-01T02:23:36;10.37;;;6.70;;
19183;SDS011;9724;51.194;6.856;2023-03-01T02:26:29;13.57;;;7.90;;
19183;SDS011;9724;51.194;6.856;2023-03-01T02:29:25;13.47;;;6.87;;
19183;SDS011;9724;51.194;6.856;2023-03-01T02:32:17;12.23;;;7.57;;
19183;SDS011;9724;51.194;6.856;2023-03-01T02:35:15;12.80;;;7.90;;
19183;SDS011;9724;51.194;6.856;2023-03-01T02:38:07;19.30;;;7.23;;
19183;SDS011;9724;51.194;6.856;2023-03-01T02:40:59;18.43;;;9.03;;
19183;SDS011;9724;51.194;6.856;2023-03-01T02:43:51;14.20;;;8.17;;
19183;SDS011;9724;51.194;6.856;2023-03-01T02:46:44;14.20;;;7.97;;
19183;SDS011;9724;51.194;6.856;2023-03-01T02:49:37;12.93;;;7.60;;
19183;SDS011;9724;51.194;6.856;2023-03-01T02:52:30;17.17;;;8.40;;
19183;SDS011;9724;51.194;6.856;2023-03-01T02:55:28;15.27;;;7.50;;
19183;SDS011;9724;51.194;6.856;2023-03-01T02:58:19;13.23;;;7.57;;
19183;SDS011;9724;51.194;6.856;2023-03-01T03:01:10;15.80;;;7.90;;
19183;SDS011;9724;51.194;6.856;2023-03-01T03:04:03;12.53;;;7.73;;
19183;SDS011;9724;51.194;6.856;2023-03-01T03:06:55;17.73;;;7.77;;
19183;SDS011;9724;51.194;6.856;2023-03-01T03:09:46;16.40;;;7.60;;
19183;SDS011;9724;51.194;6.856;2023-03-01T03:12:37;14.17;;;8.37;;
19183;SDS011;9724;51.194;6.856;2023-03-01T03:15:28;17.90;;;8.23;;
19183;SDS011;9724;51.194;6.856;2023-03-01T03:18:20;12.60;;;7.67;;
19183;SDS011;9724;51.194;6.856;2023-03-01T03:21:12;16.17;;;8.40;;
19183;SDS011;9724;51.194;6.856;2023-03-01T03:24:03;14.23;;;8.23;;
19183;SDS011;9724;51.194;6.856;2023-03-01T03:26:55;15.50;;;7.77;;
19183;SDS011;9724;51.194;6.856;2023-03-01T03:29:46;13.67;;;7.30;;
19183;SDS011;9724;51.194;6.856;2023-03-01T03:32:37;16.10;;;8.47;;
19183;SDS011;9724;51.194;6.856;2023-03-01T03:35:30;17.13;;;8.40;;
19183;SDS011;9724;51.194;6.856;2023-03-01T03:38:23;14.73;;;8.40;;
19183;SDS011;9724;51.194;6.856;2023-03-01T03:41:14;16.83;;;8.47;;
19183;SDS011;9724;51.194;6.856;2023-03-01T03:44:06;14.80;;;8.00;;
19183;SDS011;9724;51.194;6.856;2023-03-01T03:46:57;12.80;;;8.17;;
19183;SDS011;9724;51.194;6.856;2023-03-01T03:49:48;14.93;;;8.30;;
19183;SDS011;9724;51.194;6.856;2023-03-01T03:52:39;11.83;;;7.43;;
19183;SDS011;9724;51.194;6.856;2023-03-01T03:55:32;19.50;;;8.40;;
19183;SDS011;9724;51.194;6.856;2023-03-01T03:58:24;14.70;;;7.90;;
19183;SDS011;9724;51.194;6.856;2023-03-01T04:01:16;14.43;;;8.50;;
19183;SDS011;9724;51.194;6.856;2023-03-01T04:04:07;19.60;;;8.57;;
19183;SDS011;9724;51.194;6.856;2023-03-01T04:06:58;19.40;;;7.83;;
19183;SDS011;9724;51.194;6.856;2023-03-01T04:09:49;13.00;;;7.47;;
19183;SDS011;9724;51.194;6.856;2023-03-01T04:12:41;15.93;;;8.73;;
19183;SDS011;9724;51.194;6.856;2023-03-01T04:15:33;15.40;;;8.27;;
19183;SDS011;9724;51.194;6.856;2023-03-01T04:18:25;12.10;;;7.80;;
19183;SDS011;9724;51.194;6.856;2023-03-01T04:21:16;13.77;;;7.93;;
19183;SDS011;9724;51.194;6.856;2023-03-01T04:24:10;16.00;;;8.47;;
19183;SDS011;9724;51.194;6.856;2023-03-01T04:27:01;17.53;;;9.00;;
19183;SDS011;9724;51.194;6.856;2023-03-01T04:29:53;18.33;;;8.67;;
19183;SDS011;9724;51.194;6.856;2023-03-01T04:32:44;15.23;;;7.87;;
19183;SDS011;9724;51.194;6.856;2023-03-01T04:35:36;15.30;;;8.27;;
19183;SDS011;9724;51.194;6.856;2023-03-01T04:38:28;14.70;;;7.93;;
19183;SDS011;9724;51.194;6.856;2023-03-01T04:41:19;15.43;;;8.10;;
19183;SDS011;9724;51.194;6.856;2023-03-01T04:44:12;17.17;;;8.60;;
19183;SDS011;9724;51.194;6.856;2023-03-01T04:47:03;14.73;;;8.10;;
19183;SDS011;9724;51.194;6.856;2023-03-01T04:49:55;14.47;;;8.53;;
19183;SDS011;9724;51.194;6.856;2023-03-01T04:52:46;13.23;;;7.90;;
19183;SDS011;9724;51.194;6.856;2023-03-01T04:55:38;17.23;;;8.17;;
19183;SDS011;9724;51.194;6.856;2023-03-01T04:58:29;20.03;;;9.10;;
19183;SDS011;9724;51.194;6.856;2023-03-01T05:01:20;15.93;;;8.73;;
19183;SDS011;9724;51.194;6.856;2023-03-01T05:04:11;19.50;;;8.33;;
19183;SDS011;9724;51.194;6.856;2023-03-01T05:07:04;15.27;;;8.20;;
19183;SDS011;9724;51.194;6.856;2023-03-01T05:09:55;15.60;;;8.77;;
19183;SDS011;9724;51.194;6.856;2023-03-01T05:12:46;16.07;;;8.90;;
19183;SDS011;9724;51.194;6.856;2023-03-01T05:15:37;16.03;;;9.33;;
19183;SDS011;9724;51.194;6.856;2023-03-01T05:18:28;17.27;;;8.77;;
19183;SDS011;9724;51.194;6.856;2023-03-01T05:21:22;17.27;;;9.10;;
19183;SDS011;9724;51.194;6.856;2023-03-01T05:24:13;16.77;;;9.47;;
19183;SDS011;9724;51.194;6.856;2023-03-01T05:27:04;14.93;;;8.90;;
19183;SDS011;9724;51.194;6.856;2023-03-01T05:29:56;17.33;;;8.70;;
19183;SDS011;9724;51.194;6.856;2023-03-01T05:32:47;22.43;;;9.23;;
19183;SDS011;9724;51.194;6.856;2023-03-01T05:35:39;16.33;;;8.63;;
19183;SDS011;9724;51.194;6.856;2023-03-01T05:38:31;17.40;;;8.97;;
19183;SDS011;9724;51.194;6.856;2023-03-01T05:41:23;18.53;;;9.63;;
19183;SDS011;9724;51.194;6.856;2023-03-01T05:44:14;17.30;;;9.03;;
19183;SDS011;9724;51.194;6.856;2023-03-01T05:47:06;18.23;;;8.83;;
19183;SDS011;9724;51.194;6.856;2023-03-01T05:49:57;16.70;;;9.20;;
19183;SDS011;9724;51.194;6.856;2023-03-01T05:52:49;17.27;;;9.30;;
19183;SDS011;9724;51.194;6.856;2023-03-01T05:55:42;19.13;;;8.57;;
19183;SDS011;9724;51.194;6.856;2023-03-01T05:58:34;18.63;;;9.07;;
19183;SDS011;9724;51.194;6.856;2023-03-01T06:01:25;18.50;;;9.60;;
19183;SDS011;9724;51.194;6.856;2023-03-01T06:04:16;16.23;;;9.13;;
19183;SDS011;9724;51.194;6.856;2023-03-01T06:07:32;14.50;;;8.73;;
19183;SDS011;9724;51.194;6.856;2023-03-01T06:10:49;18.77;;;9.03;;
19183;SDS011;9724;51.194;6.856;2023-03-01T06:14:05;17.10;;;9.60;;
19183;SDS011;9724;51.194;6.856;2023-03-01T06:17:22;21.43;;;9.60;;
19183;SDS011;9724;51.194;6.856;2023-03-01T06:20:38;17.83;;;8.87;;
19183;SDS011;9724;51.194;6.856;2023-03-01T06:23:55;28.73;;;11.43;;
19183;SDS011;9724;51.194;6.856;2023-03-01T06:27:12;19.60;;;10.13;;
19183;SDS011;9724;51.194;6.856;2023-03-01T06:30:28;16.90;;;9.47;;
19183;SDS011;9724;51.194;6.856;2023-03-01T06:33:44;17.83;;;9.13;;
19183;SDS011;9724;51.194;6.856;2023-03-01T06:36:35;25.03;;;10.70;;
19183;SDS011;9724;51.194;6.856;2023-03-01T06:39:51;18.20;;;9.43;;
19183;SDS011;9724;51.194;6.856;2023-03-01T06:43:08;16.47;;;9.57;;
19183;SDS011;9724;51.194;6.856;2023-03-01T06:46:23;18.53;;;9.27;;
19183;SDS011;9724;51.194;6.856;2023-03-01T06:49:40;14.93;;;9.00;;
19183;SDS011;9724;51.194;6.856;2023-03-01T06:52:56;15.63;;;8.63;;
19183;SDS011;9724;51.194;6.856;2023-03-01T06:56:12;23.67;;;10.03;;
19183;SDS011;9724;51.194;6.856;2023-03-01T06:59:29;22.47;;;9.57;;
19183;SDS011;9724;51.194;6.856;2023-03-01T07:02:45;21.70;;;10.17;;
19183;SDS011;9724;51.194;6.856;2023-03-01T07:06:01;20.50;;;9.93;;
19183;SDS011;9724;51.194;6.856;2023-03-01T07:09:17;20.90;;;9.70;;
19183;SDS011;9724;51.194;6.856;2023-03-01T07:12:34;18.70;;;9.03;;
19183;SDS011;9724;51.194;6.856;2023-03-01T07:15:51;16.77;;;8.87;;
19183;SDS011;9724;51.194;6.856;2023-03-01T07:19:07;28.27;;;10.37;;
19183;SDS011;9724;51.194;6.856;2023-03-01T07:22:23;20.23;;;10.30;;
19183;SDS011;9724;51.194;6.856;2023-03-01T07:25:39;21.50;;;9.77;;
19183;SDS011;9724;51.194;6.856;2023-03-01T07:28:55;21.23;;;10.57;;
19183;SDS011;9724;51.194;6.856;2023-03-01T07:32:12;16.83;;;9.70;;
19183;SDS011;9724;51.194;6.856;2023-03-01T07:35:27;31.17;;;15.27;;
19183;SDS011;9724;51.194;6.856;2023-03-01T07:38:43;89.57;;;34.87;;
19183;SDS011;9724;51.194;6.856;2023-03-01T07:41:59;47.30;;;21.50;;
19183;SDS011;9724;51.194;6.856;2023-03-01T07:45:15;30.07;;;14.47;;
19183;SDS011;9724;51.194;6.856;2023-03-01T07:48:32;32.17;;;16.10;;
19183;SDS011;9724;51.194;6.856;2023-03-01T07:50:59;25.17;;;13.90;;
19183;SDS011;9724;51.194;6.856;2023-03-01T07:53:25;18.43;;;10.30;;
19183;SDS011;9724;51.194;6.856;2023-03-01T07:56:16;15.17;;;9.17;;
19183;SDS011;9724;51.194;6.856;2023-03-01T07:59:09;20.53;;;11.00;;
19183;SDS011;9724;51.194;6.856;2023-03-01T08:02:00;16.00;;;9.40;;
19183;SDS011;9724;51.194;6.856;2023-03-01T08:04:51;19.67;;;9.93;;
19183;SDS011;9724;51.194;6.856;2023-03-01T08:07:43;18.63;;;10.23;;
19183;SDS011;9724;51.194;6.856;2023-03-01T08:10:34;15.77;;;9.10;;
19183;SDS011;9724;51.194;6.856;2023-03-01T08:13:25;17.83;;;9.37;;
19183;SDS011;9724;51.194;6.856;2023-03-01T08:16:17;18.63;;;9.57;;
19183;SDS011;9724;51.194;6.856;2023-03-01T08:19:09;15.93;;;9.10;;
19183;SDS011;9724;51.194;6.856;2023-03-01T08:22:02;18.77;;;9.27;;
19183;SDS011;9724;51.194;6.856;2023-03-01T08:24:53;17.13;;;9.53;;
19183;SDS011;9724;51.194;6.856;2023-03-01T08:27:46;18.07;;;9.73;;
19183;SDS011;9724;51.194;6.856;2023-03-01T08:30:37;19.90;;;8.90;;
19183;SDS011;9724;51.194;6.856;2023-03-01T08:33:28;14.40;;;8.83;;
19183;SDS011;9724;51.194;6.856;2023-03-01T08:36:19;17.70;;;9.10;;
19183;SDS011;9724;51.194;6.856;2023-03-01T08:39:12;16.90;;;9.00;;
19183;SDS011;9724;51.194;6.856;2023-03-01T08:42:05;17.17;;;8.97;;
19183;SDS011;9724;51.194;6.856;2023-03-01T08:44:56;18.43;;;8.87;;
19183;SDS011;9724;51.194;6.856;2023-03-01T08:47:47;13.17;;;9.00;;
19183;SDS011;9724;51.194;6.856;2023-03-01T08:50:38;18.77;;;8.77;;
19183;SDS011;9724;51.194;6.856;2023-03-01T08:53:29;15.80;;;7.83;;
19183;SDS011;9724;51.194;6.856;2023-03-01T08:56:20;19.57;;;10.07;;
19183;SDS011;9724;51.194;6.856;2023-03-01T08:59:12;16.40;;;8.67;;
19183;SDS011;9724;51.194;6.856;2023-03-01T09:02:04;15.97;;;8.93;;
19183;SDS011;9724;51.194;6.856;2023-03-01T09:04:56;19.97;;;9.47;;
19183;SDS011;9724;51.194;6.856;2023-03-01T09:07:47;22.90;;;9.63;;
19183;SDS011;9724;51.194;6.856;2023-03-01T09:10:38;18.87;;;9.53;;
19183;SDS011;9724;51.194;6.856;2023-03-01T10:19:24;16.83;;;7.97;;
19183;SDS011;9724;51.194;6.856;2023-03-01T10:21:54;12.20;;;7.47;;
19183;SDS011;9724;51.194;6.856;2023-03-01T10:24:48;19.47;;;8.17;;
19183;SDS011;9724;51.194;6.856;2023-03-01T10:27:42;13.10;;;8.00;;
19183;SDS011;9724;51.194;6.856;2023-03-01T10:30:39;12.63;;;7.93;;
19183;SDS011;9724;51.194;6.856;2023-03-01T10:33:33;14.67;;;8.07;;
19183;SDS011;9724;51.194;6.856;2023-03-01T10:36:27;13.23;;;8.33;;
19183;SDS011;9724;51.194;6.856;2023-03-01T10:38:55;16.33;;;8.40;;
19183;SDS011;9724;51.194;6.856;2023-03-01T10:41:53;14.03;;;7.93;;
19183;SDS011;9724;51.194;6.856;2023-03-01T10:44:47;16.93;;;8.83;;
19183;SDS011;9724;51.194;6.856;2023-03-01T10:47:39;15.27;;;8.10;;
19183;SDS011;9724;51.194;6.856;2023-03-01T10:50:32;14.17;;;7.97;;
19183;SDS011;9724;51.194;6.856;2023-03-01T10:53:24;14.23;;;8.10;;
19183;SDS011;9724;51.194;6.856;2023-03-01T10:56:19;14.47;;;8.37;;
19183;SDS011;9724;51.194;6.856;2023-03-01T10:59:26;13.17;;;8.43;;
19183;SDS011;9724;51.194;6.856;2023-03-01T11:02:21;16.20;;;9.27;;
19183;SDS011;9724;51.194;6.856;2023-03-01T11:05:17;17.87;;;8.90;;
19183;SDS011;9724;51.194;6.856;2023-03-01T11:08:11;18.07;;;8.90;;
19183;SDS011;9724;51.194;6.856;2023-03-01T11:11:06;17.60;;;8.27;;
19183;SDS011;9724;51.194;6.856;2023-03-01T11:14:06;14.97;;;8.73;;
19183;SDS011;9724;51.194;6.856;2023-03-01T11:16:59;15.00;;;8.57;;
19183;SDS011;9724;51.194;6.856;2023-03-01T11:20:01;13.70;;;8.77;;
19183;SDS011;9724;51.194;6.856;2023-03-01T11:22:54;13.70;;;8.10;;
19183;SDS011;9724;51.194;6.856;2023-03-01T11:25:49;15.87;;;8.97;;
19183;SDS011;9724;51.194;6.856;2023-03-01T11:28:45;14.27;;;8.47;;
19183;SDS011;9724;51.194;6.856;2023-03-01T11:31:41;16.07;;;8.50;;
19183;SDS011;9724;51.194;6.856;2023-03-01T11:34:35;17.50;;;9.03;;
19183;SDS011;9724;51.194;6.856;2023-03-01T11:37:32;16.07;;;8.67;;
19183;SDS011;9724;51.194;6.856;2023-03-01T11:40:27;16.40;;;9.00;;
19183;SDS011;9724;51.194;6.856;2023-03-01T11:43:23;16.03;;;8.83;;
19183;SDS011;9724;51.194;6.856;2023-03-01T11:46:26;14.40;;;8.50;;
19183;SDS011;9724;51.194;6.856;2023-03-01T11:53:23;12.27;;;7.87;;
19183;SDS011;9724;51.194;6.856;2023-03-01T11:56:35;17.47;;;8.73;;
19183;SDS011;9724;51.194;6.856;2023-03-01T12:06:17;16.30;;;8.73;;
19183;SDS011;9724;51.194;6.856;2023-03-01T12:09:30;15.73;;;8.77;;
19183;SDS011;9724;51.194;6.856;2023-03-01T12:12:30;15.60;;;9.20;;
19183;SDS011;9724;51.194;6.856;2023-03-01T12:19:01;14.83;;;8.90;;
19183;SDS011;9724;51.194;6.856;2023-03-01T12:22:19;22.77;;;8.97;;
19183;SDS011;9724;51.194;6.856;2023-03-01T12:25:16;16.03;;;7.60;;
19183;SDS011;9724;51.194;6.856;2023-03-01T12:28:16;14.00;;;8.13;;
19183;SDS011;9724;51.194;6.856;2023-03-01T12:31:16;13.83;;;8.97;;
19183;SDS011;9724;51.194;6.856;2023-03-01T12:34:33;19.60;;;9.33;;
19183;SDS011;9724;51.194;6.856;2023-03-01T12:37:36;14.57;;;8.20;;
19183;SDS011;9724;51.194;6.856;2023-03-01T12:40:42;21.37;;;8.10;;
19183;SDS011;9724;51.194;6.856;2023-03-01T12:43:44;16.27;;;8.10;;
19183;SDS011;9724;51.194;6.856;2023-03-01T12:46:47;14.53;;;8.57;;
19183;SDS011;9724;51.194;6.856;2023-03-01T12:49:49;14.13;;;7.93;;
19183;SDS011;9724;51.194;6.856;2023-03-01T12:52:43;18.50;;;8.20;;
19183;SDS011;9724;51.194;6.856;2023-03-01T12:55:36;12.13;;;7.07;;
19183;SDS011;9724;51.194;6.856;2023-03-01T12:58:29;10.33;;;6.40;;
19183;SDS011;9724;51.194;6.856;2023-03-01T13:01:26;10.73;;;6.83;;
19183;SDS011;9724;51.194;6.856;2023-03-01T13:04:43;10.77;;;6.70;;
19183;SDS011;9724;51.194;6.856;2023-03-01T13:07:44;10.40;;;6.60;;
19183;SDS011;9724;51.194;6.856;2023-03-01T13:10:42;7.90;;;6.23;;
19183;SDS011;9724;51.194;6.856;2023-03-01T13:13:34;13.73;;;6.67;;
19183;SDS011;9724;51.194;6.856;2023-03-01T13:16:41;10.43;;;7.13;;
19183;SDS011;9724;51.194;6.856;2023-03-01T13:19:35;10.67;;;6.50;;
19183;SDS011;9724;51.194;6.856;2023-03-01T13:22:28;11.07;;;7.33;;
19183;SDS011;9724;51.194;6.856;2023-03-01T13:25:21;9.37;;;6.50;;
19183;SDS011;9724;51.194;6.856;2023-03-01T13:34:56;12.37;;;6.83;;
19183;SDS011;9724;51.194;6.856;2023-03-01T13:37:49;9.93;;;6.60;;
19183;SDS011;9724;51.194;6.856;2023-03-01T13:40:58;14.63;;;6.17;;
19183;SDS011;9724;51.194;6.856;2023-03-01T13:43:50;12.13;;;6.57;;
19183;SDS011;9724;51.194;6.856;2023-03-01T13:46:17;13.53;;;6.33;;
19183;SDS011;9724;51.194;6.856;2023-03-01T13:48:47;12.20;;;6.37;;
19183;SDS011;9724;51.194;6.856;2023-03-01T13:51:40;11.40;;;6.83;;
19183;SDS011;9724;51.194;6.856;2023-03-01T13:54:31;12.17;;;6.50;;
19183;SDS011;9724;51.194;6.856;2023-03-01T13:57:24;8.30;;;5.97;;
19183;SDS011;9724;51.194;6.856;2023-03-01T14:00:27;10.77;;;5.87;;
19183;SDS011;9724;51.194;6.856;2023-03-01T14:03:21;10.97;;;6.17;;
19183;SDS011;9724;51.194;6.856;2023-03-01T14:06:13;12.27;;;6.87;;
19183;SDS011;9724;51.194;6.856;2023-03-01T14:09:09;9.27;;;6.20;;
19183;SDS011;9724;51.194;6.856;2023-03-01T14:12:23;11.73;;;6.03;;
19183;SDS011;9724;51.194;6.856;2023-03-01T14:15:22;11.70;;;6.97;;
19183;SDS011;9724;51.194;6.856;2023-03-01T14:18:17;13.53;;;6.73;;
19183;SDS011;9724;51.194;6.856;2023-03-01T14:21:12;10.90;;;7.03;;
19183;SDS011;9724;51.194;6.856;2023-03-01T14:24:04;11.43;;;7.23;;
19183;SDS011;9724;51.194;6.856;2023-03-01T14:26:56;14.73;;;6.93;;
19183;SDS011;9724;51.194;6.856;2023-03-01T14:29:54;14.23;;;7.07;;
19183;SDS011;9724;51.194;6.856;2023-03-01T14:32:23;16.27;;;7.27;;
19183;SDS011;9724;51.194;6.856;2023-03-01T14:35:19;10.13;;;6.60;;
19183;SDS011;9724;51.194;6.856;2023-03-01T14:38:19;10.80;;;6.53;;
19183;SDS011;9724;51.194;6.856;2023-03-01T14:41:13;12.63;;;6.57;;
19183;SDS011;9724;51.194;6.856;2023-03-01T14:44:07;11.90;;;6.90;;
19183;SDS011;9724;51.194;6.856;2023-03-01T14:47:05;15.10;;;6.50;;
19183;SDS011;9724;51.194;6.856;2023-03-01T14:49:58;15.70;;;6.23;;
19183;SDS011;9724;51.194;6.856;2023-03-01T14:52:52;8.67;;;6.00;;
19183;SDS011;9724;51.194;6.856;2023-03-01T14:55:46;14.23;;;6.50;;
19183;SDS011;9724;51.194;6.856;2023-03-01T14:58:38;13.10;;;6.30;;
19183;SDS011;9724;51.194;6.856;2023-03-01T15:01:29;10.93;;;6.20;;
19183;SDS011;9724;51.194;6.856;2023-03-01T15:04:21;11.67;;;5.57;;
19183;SDS011;9724;51.194;6.856;2023-03-01T15:07:13;10.13;;;5.70;;
19183;SDS011;9724;51.194;6.856;2023-03-01T15:10:05;13.67;;;6.73;;
19183;SDS011;9724;51.194;6.856;2023-03-01T15:13:11;9.43;;;5.60;;
19183;SDS011;9724;51.194;6.856;2023-03-01T15:16:07;12.00;;;6.03;;
19183;SDS011;9724;51.194;6.856;2023-03-01T15:19:00;12.80;;;5.73;;
19183;SDS011;9724;51.194;6.856;2023-03-01T15:21:55;9.80;;;5.80;;
19183;SDS011;9724;51.194;6.856;2023-03-01T15:24:46;11.70;;;6.40;;
19183;SDS011;9724;51.194;6.856;2023-03-01T15:27:38;9.73;;;5.60;;
19183;SDS011;9724;51.194;6.856;2023-03-01T15:30:36;14.00;;;6.00;;
19183;SDS011;9724;51.194;6.856;2023-03-01T15:33:29;11.87;;;6.10;;
19183;SDS011;9724;51.194;6.856;2023-03-01T15:36:30;9.33;;;5.23;;
19183;SDS011;9724;51.194;6.856;2023-03-01T15:42:36;7.10;;;5.27;;
19183;SDS011;9724;51.194;6.856;2023-03-01T15:45:28;16.07;;;5.77;;
19183;SDS011;9724;51.194;6.856;2023-03-01T15:48:20;11.43;;;5.60;;
19183;SDS011;9724;51.194;6.856;2023-03-01T15:51:11;9.33;;;5.53;;
19183;SDS011;9724;51.194;6.856;2023-03-01T15:54:05;10.03;;;5.17;;
19183;SDS011;9724;51.194;6.856;2023-03-01T15:57:01;11.50;;;5.60;;
19183;SDS011;9724;51.194;6.856;2023-03-01T15:59:53;16.50;;;6.10;;
19183;SDS011;9724;51.194;6.856;2023-03-01T16:02:44;22.03;;;10.40;;
19183;SDS011;9724;51.194;6.856;2023-03-01T16:05:36;10.07;;;5.90;;
19183;SDS011;9724;51.194;6.856;2023-03-01T16:08:31;10.53;;;6.13;;
19183;SDS011;9724;51.194;6.856;2023-03-01T16:11:23;12.60;;;5.83;;
19183;SDS011;9724;51.194;6.856;2023-03-01T16:14:15;10.53;;;6.17;;
19183;SDS011;9724;51.194;6.856;2023-03-01T16:17:06;7.67;;;5.00;;
19183;SDS011;9724;51.194;6.856;2023-03-01T16:20:00;10.93;;;5.43;;
19183;SDS011;9724;51.194;6.856;2023-03-01T16:22:51;10.77;;;5.40;;
19183;SDS011;9724;51.194;6.856;2023-03-01T16:25:42;10.47;;;5.73;;
19183;SDS011;9724;51.194;6.856;2023-03-01T16:28:33;7.93;;;5.60;;
19183;SDS011;9724;51.194;6.856;2023-03-01T16:31:26;7.67;;;4.90;;
19183;SDS011;9724;51.194;6.856;2023-03-01T16:34:17;9.40;;;5.40;;
19183;SDS011;9724;51.194;6.856;2023-03-01T16:37:12;10.90;;;5.50;;
19183;SDS011;9724;51.194;6.856;2023-03-01T16:40:05;8.93;;;5.20;;
19183;SDS011;9724;51.194;6.856;2023-03-01T16:42:57;8.83;;;5.23;;
19183;SDS011;9724;51.194;6.856;2023-03-01T16:45:51;12.07;;;5.90;;
19183;SDS011;9724;51.194;6.856;2023-03-01T16:48:43;10.23;;;5.67;;
19183;SDS011;9724;51.194;6.856;2023-03-01T16:51:34;9.73;;;5.73;;
19183;SDS011;9724;51.194;6.856;2023-03-01T16:54:26;8.90;;;5.57;;
19183;SDS011;9724;51.194;6.856;2023-03-01T16:57:17;7.47;;;5.10;;
19183;SDS011;9724;51.194;6.856;2023-03-01T17:00:09;6.87;;;5.03;;
19183;SDS011;9724;51.194;6.856;2023-03-01T17:02:38;7.53;;;5.27;;
19183;SDS011;9724;51.194;6.856;2023-03-01T17:05:09;9.87;;;5.73;;
19183;SDS011;9724;51.194;6.856;2023-03-01T17:08:01;7.57;;;5.20;;
19183;SDS011;9724;51.194;6.856;2023-03-01T17:10:52;7.43;;;4.87;;
19183;SDS011;9724;51.194;6.856;2023-03-01T17:13:44;10.50;;;5.33;;
19183;SDS011;9724;51.194;6.856;2023-03-01T17:16:36;8.97;;;5.20;;
19183;SDS011;9724;51.194;6.856;2023-03-01T17:19:27;10.03;;;5.70;;
19183;SDS011;9724;51.194;6.856;2023-03-01T17:22:20;8.20;;;5.33;;
19183;SDS011;9724;51.194;6.856;2023-03-01T17:25:11;8.10;;;5.23;;
19183;SDS011;9724;51.194;6.856;2023-03-01T17:28:02;9.27;;;5.40;;
19183;SDS011;9724;51.194;6.856;2023-03-01T17:30:53;8.47;;;5.90;;
19183;SDS011;9724;51.194;6.856;2023-03-01T17:33:44;10.60;;;5.20;;
19183;SDS011;9724;51.194;6.856;2023-03-01T17:36:35;11.97;;;5.60;;
19183;SDS011;9724;51.194;6.856;2023-03-01T17:39:35;8.53;;;4.97;;
19183;SDS011;9724;51.194;6.856;2023-03-01T17:42:26;12.00;;;6.07;;
19183;SDS011;9724;51.194;6.856;2023-03-01T17:45:42;12.07;;;6.87;;
19183;SDS011;9724;51.194;6.856;2023-03-01T17:48:59;9.80;;;5.30;;
19183;SDS011;9724;51.194;6.856;2023-03-01T17:52:15;10.63;;;5.47;;
19183;SDS011;9724;51.194;6.856;2023-03-01T17:55:33;10.33;;;5.83;;
19183;SDS011;9724;51.194;6.856;2023-03-01T17:58:50;11.27;;;5.93;;
19183;SDS011;9724;51.194;6.856;2023-03-01T18:02:06;7.90;;;5.53;;
19183;SDS011;9724;51.194;6.856;2023-03-01T18:05:23;11.87;;;6.70;;
19183;SDS011;9724;51.194;6.856;2023-03-01T18:08:39;15.50;;;6.60;;
19183;SDS011;9724;51.194;6.856;2023-03-01T18:11:56;9.73;;;5.30;;
19183;SDS011;9724;51.194;6.856;2023-03-01T18:15:12;11.80;;;6.10;;
19183;SDS011;9724;51.194;6.856;2023-03-01T18:18:28;10.47;;;5.30;;
19183;SDS011;9724;51.194;6.856;2023-03-01T18:21:45;10.10;;;5.40;;
19183;SDS011;9724;51.194;6.856;2023-03-01T18:25:02;8.70;;;5.37;;
19183;SDS011;9724;51.194;6.856;2023-03-01T18:28:20;10.70;;;5.90;;
19183;SDS011;9724;51.194;6.856;2023-03-01T18:31:36;10.67;;;6.33;;
19183;SDS011;9724;51.194;6.856;2023-03-01T18:34:52;9.63;;;5.87;;
19183;SDS011;9724;51.194;6.856;2023-03-01T18:38:08;9.97;;;5.50;;
19183;SDS011;9724;51.194;6.856;2023-03-01T18:41:25;12.90;;;5.57;;
19183;SDS011;9724;51.194;6.856;2023-03-01T18:44:17;10.23;;;5.57;;
19183;SDS011;9724;51.194;6.856;2023-03-01T18:47:09;9.27;;;5.70;;
19183;SDS011;9724;51.194;6.856;2023-03-01T18:50:24;9.53;;;5.03;;
19183;SDS011;9724;51.194;6.856;2023-03-01T18:53:40;13.30;;;5.20;;
19183;SDS011;9724;51.194;6.856;2023-03-01T18:56:56;10.73;;;5.87;;
19183;SDS011;9724;51.194;6.856;2023-03-01T19:00:13;8.37;;;5.10;;
19183;SDS011;9724;51.194;6.856;2023-03-01T19:03:31;11.27;;;5.40;;
19183;SDS011;9724;51.194;6.856;2023-03-01T19:06:47;11.00;;;5.23;;
19183;SDS011;9724;51.194;6.856;2023-03-01T19:10:04;12.67;;;4.83;;
19183;SDS011;9724;51.194;6.856;2023-03-01T19:13:20;7.80;;;4.87;;
19183;SDS011;9724;51.194;6.856;2023-03-01T19:16:37;9.00;;;5.40;;
19183;SDS011;9724;51.194;6.856;2023-03-01T19:19:53;14.43;;;5.70;;